createdAt,value
2022-11-03T00:01:47.040Z,21.70
2022-11-03T00:04:15.752Z,20.58
2022-11-03T00:06:43.077Z,29.00
2022-11-03T00:09:10.365Z,21.42
2022-11-03T00:11:37.703Z,22.88
2022-11-03T00:14:04.879Z,17.90
2022-11-03T00:16:32.192Z,17.25
2022-11-03T00:18:59.378Z,27.20
2022-11-03T00:21:26.602Z,10.43
2022-11-03T00:23:54.028Z,21.73
2022-11-03T00:26:21.538Z,13.18
2022-11-03T00:28:48.725Z,18.67
2022-11-03T00:31:16.037Z,15.82
2022-11-03T00:33:43.313Z,17.58
2022-11-03T00:36:11.845Z,14.45
2022-11-03T00:38:39.127Z,14.73
2022-11-03T00:41:06.804Z,17.33
2022-11-03T00:43:34.244Z,17.33
2022-11-03T00:46:01.958Z,16.10
2022-11-03T00:48:34.847Z,9.50
2022-11-03T00:51:02.377Z,9.60
2022-11-03T00:53:29.576Z,7.00
2022-11-03T00:55:56.975Z,10.55
2022-11-03T00:58:24.495Z,5.30
2022-11-03T01:00:51.881Z,5.15
2022-11-03T01:03:19.272Z,11.23
2022-11-03T01:06:05.572Z,9.18
2022-11-03T01:08:33.226Z,7.47
2022-11-03T01:11:19.013Z,4.88
2022-11-03T01:13:46.673Z,3.40
2022-11-03T01:16:14.004Z,2.60
2022-11-03T01:18:41.299Z,5.45
2022-11-03T01:21:08.510Z,4.95
2022-11-03T01:23:35.788Z,3.95
2022-11-03T01:26:03.087Z,5.50
2022-11-03T01:28:30.340Z,9.85
2022-11-03T01:30:57.528Z,3.60
2022-11-03T01:33:24.770Z,4.75
2022-11-03T01:35:51.946Z,4.03
2022-11-03T01:38:19.324Z,2.10
2022-11-03T01:40:46.487Z,5.88
2022-11-03T01:43:13.703Z,9.10
2022-11-03T01:45:40.994Z,5.75
2022-11-03T01:48:08.305Z,1.98
2022-11-03T01:50:35.488Z,7.72
2022-11-03T01:53:02.744Z,6.97
2022-11-03T01:55:30.012Z,3.90
2022-11-03T01:57:57.224Z,6.38
2022-11-03T02:00:24.779Z,4.43
2022-11-03T02:02:52.034Z,5.47
2022-11-03T02:05:19.347Z,7.07
2022-11-03T02:07:46.624Z,9.90
2022-11-03T02:10:13.953Z,8.90
2022-11-03T02:12:41.180Z,4.93
2022-11-03T02:15:08.405Z,5.53
2022-11-03T02:17:35.683Z,4.18
2022-11-03T02:20:03.007Z,7.57
2022-11-03T02:22:30.255Z,3.58
2022-11-03T02:24:57.474Z,9.25
2022-11-03T02:27:24.702Z,4.22
2022-11-03T02:29:52.316Z,4.30
2022-11-03T02:32:19.554Z,4.97
2022-11-03T02:34:46.825Z,11.18
2022-11-03T02:37:14.183Z,7.10
2022-11-03T02:39:41.401Z,11.95
2022-11-03T02:42:08.669Z,8.13
2022-11-03T02:44:35.954Z,15.13
2022-11-03T02:47:03.255Z,12.93
2022-11-03T02:49:30.426Z,8.50
2022-11-03T02:51:57.697Z,14.27
2022-11-03T02:54:25.077Z,6.22
2022-11-03T02:56:52.354Z,17.42
2022-11-03T02:59:19.530Z,14.30
2022-11-03T03:01:50.948Z,6.32
2022-11-03T03:04:18.797Z,15.30
2022-11-03T03:06:46.088Z,16.95
2022-11-03T03:09:13.313Z,15.27
2022-11-03T03:11:40.564Z,3.33
2022-11-03T03:14:07.775Z,15.80
2022-11-03T03:16:35.003Z,17.88
2022-11-03T03:19:02.241Z,35.28
2022-11-03T03:21:29.413Z,26.23
2022-11-03T03:23:56.681Z,26.73
2022-11-03T03:26:23.940Z,21.20
2022-11-03T03:28:51.173Z,12.85
2022-11-03T03:31:18.354Z,22.75
2022-11-03T03:33:47.762Z,32.97
2022-11-03T03:36:15.521Z,20.30
2022-11-03T03:38:42.791Z,32.60
2022-11-03T03:41:10.945Z,25.98
2022-11-03T03:43:38.239Z,23.85
2022-11-03T03:46:05.559Z,11.98
2022-11-03T03:48:32.723Z,26.92
2022-11-03T03:51:00.069Z,29.23
2022-11-03T03:53:27.236Z,45.10
2022-11-03T03:55:54.420Z,21.63
2022-11-03T03:58:21.606Z,19.33
2022-11-03T04:00:48.917Z,16.98
2022-11-03T04:03:16.649Z,20.52
2022-11-03T04:05:43.884Z,13.13
2022-11-03T04:08:11.089Z,21.13
2022-11-03T04:10:38.289Z,21.02
2022-11-03T04:13:24.339Z,11.15
2022-11-03T04:16:10.412Z,19.38
2022-11-03T04:18:56.597Z,12.95
2022-11-03T04:21:42.589Z,12.85
2022-11-03T04:24:09.947Z,16.50
2022-11-03T04:26:37.103Z,14.80
2022-11-03T04:29:04.312Z,13.10
2022-11-03T04:31:31.476Z,18.48
2022-11-03T04:33:58.756Z,18.05
2022-11-03T04:36:25.936Z,13.77
2022-11-03T04:38:53.150Z,22.20
2022-11-03T04:41:20.327Z,19.00
2022-11-03T04:43:47.757Z,20.10
2022-11-03T04:46:14.937Z,13.45
2022-11-03T04:48:42.153Z,13.35
2022-11-03T04:51:09.304Z,19.92
2022-11-03T04:53:36.596Z,8.90
2022-11-03T04:56:07.404Z,11.07
2022-11-03T04:58:34.794Z,7.22
2022-11-03T05:01:02.182Z,13.10
2022-11-03T05:03:29.455Z,14.13
2022-11-03T05:05:56.594Z,9.10
2022-11-03T05:08:23.800Z,10.32
2022-11-03T05:10:51.003Z,11.10
2022-11-03T05:13:18.219Z,9.10
2022-11-03T05:15:45.619Z,14.43
2022-11-03T05:18:12.832Z,17.67
2022-11-03T05:20:39.966Z,14.80
2022-11-03T05:23:07.501Z,14.10
2022-11-03T05:25:35.385Z,16.38
2022-11-03T05:28:02.749Z,13.48
2022-11-03T05:30:30.273Z,17.83
2022-11-03T05:32:57.514Z,8.88
2022-11-03T05:35:24.678Z,14.75
2022-11-03T05:37:51.930Z,12.45
2022-11-03T05:40:19.091Z,23.65
2022-11-03T05:42:46.302Z,15.95
2022-11-03T05:45:14.051Z,16.45
2022-11-03T05:47:41.305Z,16.85
2022-11-03T05:50:08.471Z,16.50
2022-11-03T05:52:35.715Z,24.13
2022-11-03T05:55:02.922Z,28.75
2022-11-03T05:57:30.179Z,23.45
2022-11-03T05:59:57.413Z,30.95
2022-11-03T06:02:24.650Z,20.52
2022-11-03T06:04:51.855Z,24.67
2022-11-03T06:07:19.227Z,20.38
2022-11-03T06:09:46.458Z,33.22
2022-11-03T06:12:13.676Z,25.65
2022-11-03T06:14:40.870Z,32.83
2022-11-03T06:17:08.155Z,27.20
2022-11-03T06:19:35.303Z,44.67
2022-11-03T06:22:02.512Z,56.85
2022-11-03T06:24:30.808Z,18.02
2022-11-03T06:26:58.732Z,26.27
2022-11-03T06:29:25.980Z,8.57
2022-11-03T06:31:53.238Z,4.45
2022-11-03T06:34:20.379Z,7.85
2022-11-03T06:36:47.668Z,9.38
2022-11-03T06:39:14.833Z,7.15
2022-11-03T06:41:42.050Z,5.03
2022-11-03T06:44:09.241Z,6.05
2022-11-03T06:46:36.475Z,3.10
2022-11-03T06:49:05.753Z,6.13
2022-11-03T06:51:32.991Z,8.70
2022-11-03T06:54:00.237Z,8.60
2022-11-03T06:56:27.401Z,5.85
2022-11-03T06:58:54.571Z,16.38
2022-11-03T07:01:21.988Z,10.68
2022-11-03T07:03:49.498Z,11.95
2022-11-03T07:06:16.728Z,15.35
2022-11-03T07:08:44.161Z,11.68
2022-11-03T07:11:11.366Z,13.75
2022-11-03T07:13:38.665Z,18.30
2022-11-03T07:16:06.349Z,13.13
2022-11-03T07:18:33.629Z,14.98
2022-11-03T07:21:00.866Z,17.25
2022-11-03T07:23:28.078Z,10.07
2022-11-03T07:25:55.353Z,16.92
2022-11-03T07:28:22.584Z,13.90
2022-11-03T07:30:49.794Z,11.05
2022-11-03T07:33:16.956Z,9.52
2022-11-03T07:38:31.414Z,10.80
2022-11-03T07:40:59.030Z,13.90
2022-11-03T07:43:26.305Z,18.58
2022-11-03T07:45:54.198Z,13.23
2022-11-03T07:48:21.487Z,17.42
2022-11-03T07:50:48.760Z,14.52
2022-11-03T07:53:15.990Z,9.10
2022-11-03T07:55:43.157Z,7.43
2022-11-03T07:58:10.425Z,12.73
2022-11-03T08:00:37.589Z,11.10
2022-11-03T08:03:05.139Z,10.00
2022-11-03T08:05:32.529Z,8.73
2022-11-03T08:07:59.805Z,8.25
2022-11-03T08:10:26.966Z,11.45
2022-11-03T08:12:54.230Z,5.82
2022-11-03T08:15:21.472Z,10.32
2022-11-03T08:17:53.463Z,9.05
2022-11-03T08:20:23.187Z,5.60
2022-11-03T08:23:19.628Z,4.90
2022-11-03T08:25:37.689Z,11.27
2022-11-03T08:28:05.024Z,13.88
2022-11-03T08:30:32.220Z,8.52
2022-11-03T08:32:59.674Z,10.68
2022-11-03T08:35:30.048Z,17.15
2022-11-03T08:38:00.322Z,6.72
2022-11-03T08:40:27.472Z,5.65
2022-11-03T08:42:54.773Z,8.30
2022-11-03T08:45:22.217Z,12.35
2022-11-03T08:47:49.464Z,9.60
2022-11-03T08:50:16.688Z,10.95
2022-11-03T08:52:44.073Z,18.70
2022-11-03T08:55:11.259Z,10.07
2022-11-03T08:57:41.347Z,10.07
2022-11-03T09:00:08.609Z,17.95
2022-11-03T09:02:35.848Z,8.73
2022-11-03T09:05:03.806Z,8.55
2022-11-03T09:10:18.543Z,17.42
2022-11-03T09:12:46.527Z,12.63
2022-11-03T09:15:13.772Z,14.45
2022-11-03T09:17:43.291Z,4.57
2022-11-03T09:20:12.877Z,9.23
2022-11-03T09:22:40.276Z,12.25
2022-11-03T09:25:07.557Z,14.48
2022-11-03T09:27:34.739Z,6.40
2022-11-03T09:30:16.969Z,6.60
2022-11-03T09:32:44.433Z,13.75
2022-11-03T09:35:12.290Z,8.00
2022-11-03T09:37:39.549Z,8.75
2022-11-03T09:40:06.884Z,8.13
2022-11-03T09:42:34.597Z,10.07
2022-11-03T09:45:02.002Z,3.85
2022-11-03T09:47:29.469Z,12.90
2022-11-03T09:49:56.703Z,7.15
2022-11-03T09:52:24.164Z,12.73
2022-11-03T09:54:51.383Z,10.82
2022-11-03T09:57:18.996Z,12.27
2022-11-03T09:59:46.385Z,11.82
2022-11-03T10:02:13.656Z,3.92
2022-11-03T10:04:40.948Z,10.18
2022-11-03T10:07:08.171Z,9.73
2022-11-03T10:09:35.632Z,8.07
2022-11-03T10:12:02.931Z,5.28
2022-11-03T10:14:30.115Z,11.98
2022-11-03T10:16:57.484Z,9.32
2022-11-03T10:19:25.877Z,10.43
2022-11-03T10:21:53.084Z,10.23
2022-11-03T10:24:20.410Z,10.35
2022-11-03T10:26:47.988Z,11.90
2022-11-03T10:29:15.566Z,10.93
2022-11-03T10:31:42.924Z,5.07
2022-11-03T10:34:10.328Z,7.97
2022-11-03T10:36:37.642Z,7.00
2022-11-03T10:39:04.977Z,11.60
2022-11-03T10:41:32.368Z,10.43
2022-11-03T10:43:59.599Z,4.65
2022-11-03T10:49:14.826Z,5.75
2022-11-03T10:51:42.072Z,9.95
2022-11-03T10:54:09.433Z,12.00
2022-11-03T10:56:36.724Z,6.07
2022-11-03T10:59:03.948Z,4.28
2022-11-03T11:01:31.264Z,5.43
2022-11-03T11:03:58.768Z,11.02
2022-11-03T11:06:26.056Z,10.20
2022-11-03T11:08:58.882Z,10.15
2022-11-03T11:11:27.199Z,7.40
2022-11-03T11:13:54.516Z,5.60
2022-11-03T11:16:21.670Z,5.32
2022-11-03T11:18:48.957Z,4.45
2022-11-03T11:21:16.229Z,4.03
2022-11-03T11:23:43.881Z,9.02
2022-11-03T11:26:11.428Z,5.95
2022-11-03T11:28:38.895Z,4.25
2022-11-03T11:31:06.288Z,9.45
2022-11-03T11:33:33.533Z,9.85
2022-11-03T11:36:00.840Z,6.53
2022-11-03T11:38:28.028Z,3.25
2022-11-03T11:40:55.275Z,10.15
2022-11-03T11:43:22.452Z,4.38
2022-11-03T11:49:07.465Z,3.90
2022-11-03T11:51:34.844Z,4.55
2022-11-03T11:54:17.478Z,10.25
2022-11-03T11:56:45.439Z,4.70
2022-11-03T11:59:12.694Z,7.32
2022-11-03T12:01:41.464Z,8.85
2022-11-03T12:04:09.005Z,9.80
2022-11-03T12:06:37.076Z,10.60
2022-11-03T12:09:04.317Z,12.00
2022-11-03T12:11:31.706Z,11.63
2022-11-03T12:13:58.938Z,6.55
2022-11-03T12:16:26.915Z,6.15
2022-11-03T12:18:54.424Z,11.02
2022-11-03T12:21:21.857Z,6.78
2022-11-03T12:24:10.108Z,7.30
2022-11-03T12:26:40.322Z,6.03
2022-11-03T12:29:07.678Z,4.47
2022-11-03T12:31:37.035Z,4.88
2022-11-03T12:34:04.602Z,6.22
2022-11-03T12:36:31.969Z,7.10
2022-11-03T12:38:59.500Z,7.20
2022-11-03T12:41:27.005Z,9.60
2022-11-03T12:43:56.372Z,6.97
2022-11-03T12:46:23.837Z,7.88
2022-11-03T12:48:51.139Z,9.65
2022-11-03T12:51:19.929Z,9.27
2022-11-03T12:53:47.739Z,5.28
2022-11-03T12:56:15.177Z,6.68
2022-11-03T12:58:42.684Z,14.90
2022-11-03T13:01:16.459Z,8.75
2022-11-03T13:03:43.992Z,6.22
2022-11-03T13:06:12.119Z,8.00
2022-11-03T13:08:39.414Z,4.47
2022-11-03T13:11:26.461Z,10.35
2022-11-03T13:13:54.330Z,7.13
2022-11-03T13:16:22.139Z,4.80
2022-11-03T13:18:52.945Z,3.72
2022-11-03T13:21:24.622Z,4.35
2022-11-03T13:23:53.506Z,4.15
2022-11-03T13:26:20.750Z,6.47
2022-11-03T13:28:48.093Z,5.70
2022-11-03T13:31:15.419Z,1.58
2022-11-03T13:33:43.512Z,4.05
2022-11-03T13:36:11.913Z,9.38
2022-11-03T13:38:39.152Z,3.33
2022-11-03T13:41:09.071Z,9.45
2022-11-03T13:43:37.130Z,4.15
2022-11-03T13:46:05.291Z,2.40
2022-11-03T13:51:23.948Z,3.83
2022-11-03T13:59:35.909Z,12.77
2022-11-03T14:04:50.720Z,1.75
2022-11-03T14:07:18.005Z,5.70
2022-11-03T14:09:45.252Z,2.92
2022-11-03T14:12:31.112Z,4.45
2022-11-03T14:14:58.655Z,4.88
2022-11-03T14:17:28.281Z,5.07
2022-11-03T14:20:00.803Z,3.92
2022-11-03T14:22:31.352Z,3.45
2022-11-03T14:24:58.639Z,3.65
2022-11-03T14:27:26.268Z,6.65
2022-11-03T14:29:53.756Z,4.35
2022-11-03T14:32:21.084Z,11.25
2022-11-03T14:34:48.721Z,6.85
2022-11-03T14:37:16.296Z,11.32
2022-11-03T14:39:44.105Z,6.85
2022-11-03T14:42:15.598Z,6.07
2022-11-03T14:44:43.436Z,5.85
2022-11-03T14:47:10.744Z,6.03
2022-11-03T14:49:38.098Z,10.63
2022-11-03T14:52:05.456Z,9.57
2022-11-03T14:54:32.954Z,11.52
2022-11-03T14:57:00.153Z,8.07
2022-11-03T14:59:27.364Z,7.53
2022-11-03T15:01:54.838Z,6.55
2022-11-03T15:04:22.547Z,10.10
2022-11-03T15:06:49.892Z,5.32
2022-11-03T15:09:17.468Z,7.13
2022-11-03T15:11:47.465Z,11.23
2022-11-03T15:14:14.783Z,9.68
2022-11-03T15:17:01.532Z,4.82
2022-11-03T15:19:28.935Z,7.55
2022-11-03T15:21:56.288Z,7.95
2022-11-03T15:27:15.037Z,3.53
2022-11-03T15:29:42.494Z,5.50
2022-11-03T15:32:09.948Z,6.50
2022-11-03T15:34:37.219Z,5.38
2022-11-03T15:37:04.607Z,6.53
2022-11-03T15:39:32.339Z,8.90
2022-11-03T15:42:00.332Z,11.70
2022-11-03T15:44:27.920Z,6.07
2022-11-03T15:46:55.208Z,6.38
2022-11-03T15:49:22.579Z,6.95
2022-11-03T15:51:50.075Z,8.88
2022-11-03T15:54:17.566Z,6.47
2022-11-03T15:56:46.435Z,5.85
2022-11-03T15:59:13.837Z,7.97
2022-11-03T16:01:41.587Z,7.70
2022-11-03T16:04:08.967Z,12.00
2022-11-03T16:07:06.364Z,9.68
2022-11-03T16:09:24.759Z,4.68
2022-11-03T16:11:52.007Z,10.57
2022-11-03T16:14:19.641Z,7.32
2022-11-03T16:16:46.866Z,10.15
2022-11-03T16:19:14.124Z,9.45
2022-11-03T16:21:41.471Z,16.45
2022-11-03T16:24:08.742Z,6.43
2022-11-03T16:26:36.014Z,11.05
2022-11-03T16:29:06.641Z,8.45
2022-11-03T16:31:34.175Z,9.75
2022-11-03T16:34:01.570Z,8.32
2022-11-03T16:36:34.293Z,6.75
2022-11-03T16:39:14.058Z,4.65
2022-11-03T16:41:48.276Z,4.82
2022-11-03T16:44:15.782Z,10.30
2022-11-03T16:46:43.050Z,9.85
2022-11-03T16:49:10.357Z,9.25
2022-11-03T16:51:37.764Z,6.53
2022-11-03T16:54:05.267Z,17.13
2022-11-03T16:56:32.572Z,6.93
2022-11-03T16:59:00.018Z,9.07
2022-11-03T17:01:27.549Z,7.10
2022-11-03T17:03:54.920Z,12.73
2022-11-03T17:06:22.331Z,11.30
2022-11-03T17:08:53.700Z,8.25
2022-11-03T17:11:35.942Z,11.82
2022-11-03T17:14:03.761Z,6.47
2022-11-03T17:16:34.058Z,7.53
2022-11-03T17:19:01.382Z,11.90
2022-11-03T17:21:28.635Z,11.30
2022-11-03T17:23:56.636Z,14.82
2022-11-03T17:26:24.414Z,3.53
2022-11-03T17:28:51.748Z,10.30
2022-11-03T17:31:19.051Z,6.55
2022-11-03T17:33:46.379Z,12.57
2022-11-03T17:36:13.692Z,9.75
2022-11-03T17:38:40.937Z,6.68
2022-11-03T17:41:08.183Z,8.85
2022-11-03T17:43:38.182Z,8.70
2022-11-03T17:46:06.081Z,9.98
2022-11-03T17:48:33.653Z,14.80
2022-11-03T17:51:01.113Z,7.30
2022-11-03T17:53:28.803Z,8.13
2022-11-03T17:56:28.417Z,7.05
2022-11-03T17:58:46.477Z,14.25
2022-11-03T18:01:14.750Z,8.32
2022-11-03T18:03:42.065Z,13.25
2022-11-03T18:06:09.447Z,11.68
2022-11-03T18:08:36.803Z,11.63
2022-11-03T18:11:04.155Z,12.85
2022-11-03T18:13:34.364Z,10.27
2022-11-03T18:16:02.024Z,18.50
2022-11-03T18:18:29.425Z,10.20
2022-11-03T18:20:56.715Z,11.65
2022-11-03T18:23:24.152Z,13.85
2022-11-03T18:25:51.778Z,8.82
2022-11-03T18:28:19.612Z,12.48
2022-11-03T18:30:46.992Z,17.05
2022-11-03T18:33:14.293Z,12.38
2022-11-03T18:35:41.639Z,8.73
2022-11-03T18:38:10.745Z,14.05
2022-11-03T18:40:38.853Z,20.05
2022-11-03T18:43:06.336Z,10.90
2022-11-03T18:45:37.127Z,26.92
2022-11-03T18:48:04.457Z,11.95
2022-11-03T18:50:31.693Z,11.70
2022-11-03T18:53:01.579Z,12.27
2022-11-03T18:55:29.209Z,10.68
2022-11-03T18:57:56.483Z,12.23
2022-11-03T19:00:23.839Z,14.13
2022-11-03T19:02:51.011Z,16.60
2022-11-03T19:05:18.447Z,15.07
2022-11-03T19:07:45.711Z,15.13
2022-11-03T19:10:13.201Z,24.10
2022-11-03T19:12:42.377Z,24.38
2022-11-03T19:15:09.831Z,17.08
2022-11-03T19:17:37.284Z,22.10
2022-11-03T19:20:04.690Z,26.77
2022-11-03T19:22:32.028Z,39.92
2022-11-03T19:24:59.375Z,33.15
2022-11-03T19:27:26.677Z,37.65
2022-11-03T19:29:54.222Z,37.47
2022-11-03T19:32:21.520Z,28.40
2022-11-03T19:34:48.841Z,29.63
2022-11-03T19:37:16.103Z,27.98
2022-11-03T19:39:43.653Z,23.77
2022-11-03T19:42:29.481Z,16.17
2022-11-03T19:44:58.296Z,12.45
2022-11-03T19:47:28.329Z,20.70
2022-11-03T19:49:59.330Z,13.23
2022-11-03T19:52:26.731Z,12.00
2022-11-03T19:54:54.033Z,17.85
2022-11-03T19:57:21.561Z,12.25
2022-11-03T19:59:48.925Z,18.30
2022-11-03T20:02:19.552Z,18.40
2022-11-03T20:04:47.620Z,17.55
2022-11-03T20:07:14.820Z,18.63
2022-11-03T20:09:42.171Z,24.45
2022-11-03T20:12:09.429Z,18.77
2022-11-03T20:14:36.795Z,19.85
2022-11-03T20:17:04.041Z,24.08
2022-11-03T20:19:31.324Z,15.85
2022-11-03T20:21:58.656Z,25.50
2022-11-03T20:24:25.866Z,31.17
2022-11-03T20:26:53.248Z,24.27
2022-11-03T20:29:20.421Z,26.20
2022-11-03T20:31:47.809Z,18.38
2022-11-03T20:34:15.143Z,26.15
2022-11-03T20:36:44.878Z,22.27
2022-11-03T20:39:12.102Z,26.70
2022-11-03T20:41:39.320Z,23.60
2022-11-03T20:44:06.615Z,21.48
2022-11-03T20:46:34.455Z,27.58
2022-11-03T20:49:01.705Z,21.30
2022-11-03T20:51:28.991Z,26.85
2022-11-03T20:53:56.268Z,34.03
2022-11-03T20:56:23.638Z,17.55
2022-11-03T20:58:50.949Z,20.52
2022-11-03T21:01:18.330Z,16.52
2022-11-03T21:03:58.835Z,24.58
2022-11-03T21:06:26.419Z,26.60
2022-11-03T21:08:53.720Z,13.88
2022-11-03T21:11:24.258Z,30.90
2022-11-03T21:13:51.520Z,22.08
2022-11-03T21:16:37.588Z,25.73
2022-11-03T21:19:24.044Z,29.55
2022-11-03T21:21:51.506Z,28.38
2022-11-03T21:24:18.830Z,28.35
2022-11-03T21:26:46.856Z,31.17
2022-11-03T21:29:19.626Z,24.38
2022-11-03T21:31:54.956Z,30.05
2022-11-03T21:34:22.239Z,23.38
2022-11-03T21:36:51.968Z,23.08
2022-11-03T21:39:19.563Z,18.38
2022-11-03T21:42:05.668Z,15.60
2022-11-03T21:44:32.936Z,16.33
2022-11-03T21:47:00.201Z,15.98
2022-11-03T21:49:42.933Z,14.25
2022-11-03T21:52:10.941Z,13.40
2022-11-03T21:54:38.389Z,8.25
2022-11-03T21:57:06.441Z,11.27
2022-11-03T21:59:33.656Z,12.25
2022-11-03T22:02:02.176Z,6.28
2022-11-03T22:04:29.722Z,15.95
2022-11-03T22:06:57.104Z,5.55
2022-11-03T22:09:28.057Z,14.43
2022-11-03T22:11:55.652Z,6.57
2022-11-03T22:14:23.027Z,8.88
2022-11-03T22:16:50.506Z,8.57
2022-11-03T22:19:37.018Z,10.68
2022-11-03T22:22:23.060Z,12.90
2022-11-03T22:25:09.191Z,6.25
2022-11-03T22:27:36.644Z,7.85
2022-11-03T22:30:22.952Z,6.53
2022-11-03T22:32:50.369Z,7.57
2022-11-03T22:35:36.724Z,11.38
2022-11-03T22:38:04.085Z,11.15
2022-11-03T22:40:50.080Z,6.28
2022-11-03T22:43:40.686Z,6.80
2022-11-03T22:46:08.176Z,51.72
2022-11-03T22:48:35.527Z,14.43
2022-11-03T22:51:02.885Z,13.13
2022-11-03T22:53:49.049Z,10.27
2022-11-03T22:56:16.494Z,10.30
2022-11-03T22:58:43.923Z,8.60
2022-11-03T23:01:12.497Z,12.48
2022-11-03T23:03:39.928Z,12.48
2022-11-03T23:06:07.184Z,7.10
2022-11-03T23:08:34.438Z,7.32
2022-11-03T23:11:01.789Z,9.70
2022-11-03T23:13:29.074Z,12.40
2022-11-03T23:15:56.410Z,16.13
2022-11-03T23:18:42.495Z,13.27
2022-11-03T23:21:09.860Z,12.90
2022-11-03T23:23:56.264Z,12.80
2022-11-03T23:26:23.669Z,16.80
2022-11-03T23:28:51.033Z,13.25
2022-11-03T23:31:18.484Z,18.00
2022-11-03T23:33:45.832Z,15.00
2022-11-03T23:36:13.241Z,18.35
2022-11-03T23:38:40.524Z,17.02
2022-11-03T23:41:07.759Z,27.08
2022-11-03T23:43:35.003Z,24.45
2022-11-03T23:46:21.110Z,15.38
2022-11-03T23:48:48.458Z,19.35
2022-11-03T23:51:15.812Z,19.40
2022-11-03T23:53:43.175Z,18.45
2022-11-03T23:56:29.358Z,18.50
2022-11-03T23:58:56.693Z,16.83
